Levelland, Texas
Current Conditions -  °F | °C
As of 9:53 AM on Thursday 23 Oct 2014 (Local Time) from KLBB Reporting Station
Moderate Fog Moderate Fog  
Wind Chill: 54°   Ceiling: 200
Heat Index: 54°   Visibility: 0.12mi
Dew Point: 53°   Wind: 7mph
Humidity: 97%   Direction: 250°WSW
Pressure: 30.16"   Gusts: NA
Location:  33.59°N, 102.37°W
Report Text: KLBB 231453Z 25006KT 1/8SM R17R/0800V1000FT FG VV002 12/12 A3016 RMK AO2 SLP187 T01220117 53011 $
Loading
Personal Weather Stations






























Interactive Weather Map
Tropical Storm Tracking
New forecast layout! Learn more

10-Day Weather Forecast

Advertisements
Track Severe Weather on mobile